Briefing drone pour Decize

Rechercher une autre localisation

Conditions de vol :


Nous sommes le : Samedi 31 juillet 2021
Il est 12:35 UTC (14:35 LT)

Lever de soleil : 03:59 UTC (05:59 LT)
Coucher de soleil : 19:46 UTC (21:46 LT)

Météo

L'essentiel des conditions de vol

VIGILANCE MÉTÉO FRANCE - Nièvre (58)
Pas de vigilances particulieres
CARTES DES FRONTS
METAR de LFQG
LFQG 141800Z AUTO 21004KT 190V260 9999 SCT036 BKN043 OVC072 19/16 Q1018

Date d'émission: 14/07/2021
Heure d'émission: 18:00 UTC
Vent: 210° (variable du 190° au 260°) pour 4 KT (7 km/h)
Visibilité horizontale: > 10 km
Plafond :
- Nuages épars à 3600ft (1097m)
- Nuages morcelés à 4300ft (1311m)
- Couvert à 7200ft (2195m)
Température: 19 °C
Point de rosée: 16 °C
Humidité: 83%
Pression (QNH): 1018 hPa
Prévision 24h pour Nevers (18 km)
Vent : 260° pour 3 KT (10 km/h)
Temperature Maxi: 15 °C
Temperature Min: 15 °C
Humidité : 84%
Condition : Légère pluie



Warning: count(): Parameter must be an array or an object that implements Countable in /homepages/6/d509196549/htdocs/droneoxygene/briefing.php on line 743
WEBCAM POUR DECIZE

Réglementation

Voler en sécurité

CARTES AERONAUTIQUE 1/500.000
CARTES VAC (LFQG)
SUP AIP




Chargement des AIP...
NOTAM (DECIZE + Terrain à proximité / FIR )




Chargement des NOTAMS...
CONTACT PREFECTURE 58


Avertissement : Les données mises à disposition sont indicatives. Oxygène Drone ne pourra être tenu responsable de dégâts causés aux biens et aux personnes.